createdAt,value
2023-05-14T00:01:16.038Z,18.75
2023-05-14T00:03:42.742Z,17.83
2023-05-14T00:06:10.931Z,15.95
2023-05-14T00:08:37.490Z,18.70
2023-05-14T00:11:08.996Z,21.75
2023-05-14T00:13:37.504Z,20.63
2023-05-14T00:16:04.293Z,19.30
2023-05-14T00:18:30.993Z,20.50
2023-05-14T00:21:00.170Z,16.05
2023-05-14T00:23:26.750Z,20.48
2023-05-14T00:25:53.250Z,14.98
2023-05-14T00:28:20.335Z,18.50
2023-05-14T00:30:47.147Z,16.88
2023-05-14T00:33:16.960Z,19.65
2023-05-14T00:35:43.588Z,23.42
2023-05-14T00:38:11.165Z,16.38
2023-05-14T00:40:38.142Z,18.83
2023-05-14T00:43:04.722Z,16.58
2023-05-14T00:45:31.373Z,18.65
2023-05-14T00:47:57.990Z,19.38
2023-05-14T00:50:24.940Z,16.60
2023-05-14T00:52:51.905Z,22.30
2023-05-14T00:55:19.164Z,18.58
2023-05-14T00:57:46.556Z,17.95
2023-05-14T01:00:13.867Z,16.52
2023-05-14T01:02:40.638Z,17.65
2023-05-14T01:05:08.467Z,21.92
2023-05-14T01:07:41.896Z,19.15
2023-05-14T01:10:11.332Z,18.85
2023-05-14T01:13:07.385Z,22.02
2023-05-14T01:15:36.181Z,18.63
2023-05-14T01:18:13.504Z,17.73
2023-05-14T01:20:42.853Z,22.20
2023-05-14T01:23:12.253Z,16.48
2023-05-14T01:25:38.816Z,20.20
2023-05-14T01:28:19.661Z,19.30
2023-05-14T01:30:57.317Z,16.52
2023-05-14T01:33:30.729Z,16.67
2023-05-14T01:35:58.506Z,18.48
2023-05-14T01:38:28.574Z,16.70
2023-05-14T01:40:56.714Z,16.75
2023-05-14T01:43:23.974Z,17.58
2023-05-14T01:45:50.721Z,20.02
2023-05-14T01:48:17.785Z,20.02
2023-05-14T01:50:44.294Z,23.95
2023-05-14T01:53:10.851Z,18.95
2023-05-14T01:55:37.372Z,16.48
2023-05-14T01:58:03.834Z,19.75
2023-05-14T02:00:36.572Z,17.25
2023-05-14T02:03:03.280Z,17.45
2023-05-14T02:05:30.073Z,16.10
2023-05-14T02:07:56.741Z,19.63
2023-05-14T02:10:23.501Z,17.65
2023-05-14T02:12:50.550Z,18.75
2023-05-14T02:15:17.308Z,18.95
2023-05-14T02:17:43.919Z,18.40
2023-05-14T02:20:10.884Z,17.98
2023-05-14T02:22:39.655Z,15.38
2023-05-14T02:25:07.206Z,20.23
2023-05-14T02:27:35.420Z,20.15
2023-05-14T02:30:02.096Z,17.92
2023-05-14T02:32:28.860Z,18.95
2023-05-14T02:34:55.487Z,19.15
2023-05-14T02:37:22.205Z,17.88
2023-05-14T02:39:49.424Z,20.13
2023-05-14T02:42:16.062Z,16.95
2023-05-14T02:44:42.643Z,22.48
2023-05-14T02:47:10.863Z,18.98
2023-05-14T02:49:37.446Z,17.20
2023-05-14T02:52:04.235Z,17.42
2023-05-14T02:54:30.834Z,17.33
2023-05-14T02:56:57.404Z,18.52
2023-05-14T02:59:24.902Z,17.65
2023-05-14T03:01:52.130Z,22.67
2023-05-14T03:04:19.327Z,20.23
2023-05-14T03:06:45.840Z,21.60
2023-05-14T03:09:12.511Z,20.73
2023-05-14T03:11:39.173Z,20.75
2023-05-14T03:14:05.892Z,19.10
2023-05-14T03:16:32.474Z,20.73
2023-05-14T03:18:59.066Z,18.27
2023-05-14T03:21:26.222Z,18.75
2023-05-14T03:23:53.792Z,19.33
2023-05-14T03:26:21.717Z,15.60
2023-05-14T03:28:48.681Z,18.77
2023-05-14T03:31:15.841Z,19.65
2023-05-14T03:33:44.206Z,19.83
2023-05-14T03:36:10.825Z,21.10
2023-05-14T03:38:37.445Z,20.33
2023-05-14T03:41:03.930Z,16.98
2023-05-14T03:43:30.773Z,22.73
2023-05-14T03:45:57.343Z,18.52
2023-05-14T03:48:24.004Z,20.65
2023-05-14T03:50:51.296Z,18.58
2023-05-14T03:53:18.028Z,20.13
2023-05-14T03:55:44.573Z,19.98
2023-05-14T03:58:14.131Z,20.52
2023-05-14T04:00:42.058Z,19.65
2023-05-14T04:03:09.170Z,18.73
2023-05-14T04:05:36.333Z,17.60
2023-05-14T04:08:02.958Z,19.02
2023-05-14T04:10:29.929Z,18.95
2023-05-14T04:12:56.432Z,17.33
2023-05-14T04:15:24.515Z,20.33
2023-05-14T04:17:51.200Z,17.67
2023-05-14T04:20:17.769Z,17.23
2023-05-14T04:22:44.521Z,15.45
2023-05-14T04:25:11.266Z,20.15
2023-05-14T04:27:37.717Z,17.92
2023-05-14T04:30:04.873Z,20.70
2023-05-14T04:32:31.535Z,19.83
2023-05-14T04:34:58.099Z,21.83
2023-05-14T04:37:24.545Z,18.73
2023-05-14T04:39:51.270Z,18.88
2023-05-14T04:42:20.117Z,16.25
2023-05-14T04:44:51.726Z,15.23
2023-05-14T04:47:18.568Z,18.58
2023-05-14T04:49:45.293Z,17.02
2023-05-14T04:52:12.128Z,16.65
2023-05-14T04:54:38.685Z,20.15
2023-05-14T04:57:07.522Z,18.00
2023-05-14T04:59:37.025Z,15.07
2023-05-14T05:02:03.675Z,14.00
2023-05-14T05:04:30.529Z,14.15
2023-05-14T05:06:57.069Z,15.18
2023-05-14T05:09:23.755Z,16.88
2023-05-14T05:11:50.212Z,16.50
2023-05-14T05:14:16.879Z,16.02
2023-05-14T05:16:43.542Z,17.75
2023-05-14T05:19:10.266Z,19.63
2023-05-14T05:21:39.384Z,16.05
2023-05-14T05:24:06.260Z,14.05
2023-05-14T05:26:32.741Z,12.63
2023-05-14T05:28:59.353Z,16.33
2023-05-14T05:31:25.989Z,13.30
2023-05-14T05:33:52.439Z,14.82
2023-05-14T05:36:18.894Z,14.82
2023-05-14T05:38:45.539Z,13.40
2023-05-14T05:41:12.197Z,14.38
2023-05-14T05:43:38.717Z,13.23
2023-05-14T05:46:05.187Z,15.88
2023-05-14T05:48:31.794Z,15.27
2023-05-14T05:50:58.494Z,15.68
2023-05-14T05:53:24.955Z,16.10
2023-05-14T05:55:54.387Z,16.38
2023-05-14T05:58:20.941Z,14.98
2023-05-14T06:00:47.488Z,15.23
2023-05-14T06:03:14.175Z,13.77
2023-05-14T06:05:40.960Z,13.82
2023-05-14T06:08:07.668Z,12.98
2023-05-14T06:10:35.035Z,13.13
2023-05-14T06:13:01.745Z,18.65
2023-05-14T06:15:28.236Z,15.70
2023-05-14T06:18:03.890Z,14.13
2023-05-14T06:20:30.472Z,17.25
2023-05-14T06:22:56.953Z,13.77
2023-05-14T06:25:23.426Z,12.98
2023-05-14T06:27:49.908Z,13.57
2023-05-14T06:30:16.430Z,12.75
2023-05-14T06:32:43.175Z,13.32
2023-05-14T06:35:13.108Z,14.52
2023-05-14T06:37:39.705Z,11.65
2023-05-14T06:40:09.082Z,16.23
2023-05-14T06:42:35.578Z,11.57
2023-05-14T06:45:02.264Z,14.20
2023-05-14T06:47:32.012Z,14.10
2023-05-14T06:49:58.793Z,13.73
2023-05-14T06:52:25.743Z,13.23
2023-05-14T06:54:52.288Z,13.02
2023-05-14T06:57:18.797Z,14.82
2023-05-14T06:59:45.368Z,11.85
2023-05-14T07:02:12.483Z,11.98
2023-05-14T07:04:39.076Z,15.07
2023-05-14T07:07:05.898Z,11.88
2023-05-14T07:09:32.360Z,13.40
2023-05-14T07:11:58.949Z,13.82
2023-05-14T07:14:26.717Z,15.88
2023-05-14T07:16:53.219Z,14.07
2023-05-14T07:19:19.756Z,12.65
2023-05-14T07:21:46.259Z,13.77
2023-05-14T07:24:12.707Z,11.18
2023-05-14T07:26:39.404Z,12.45
2023-05-14T07:29:06.398Z,11.77
2023-05-14T07:31:33.544Z,15.95
2023-05-14T07:33:59.989Z,13.30
2023-05-14T07:36:29.775Z,14.20
2023-05-14T07:38:56.362Z,13.80
2023-05-14T07:41:22.874Z,14.70
2023-05-14T07:43:49.674Z,13.82
2023-05-14T07:46:16.578Z,12.43
2023-05-14T07:48:43.214Z,11.85
2023-05-14T07:51:09.709Z,14.52
2023-05-14T07:53:36.200Z,12.73
2023-05-14T07:56:02.684Z,12.52
2023-05-14T07:58:30.055Z,15.10
2023-05-14T08:00:57.709Z,12.48
2023-05-14T08:03:24.451Z,15.25
2023-05-14T08:05:52.517Z,12.93
2023-05-14T08:08:22.742Z,14.00
2023-05-14T08:10:51.511Z,16.67
2023-05-14T08:13:18.319Z,14.40
2023-05-14T08:15:44.793Z,12.73
2023-05-14T08:18:11.294Z,14.10
2023-05-14T08:20:37.802Z,14.20
2023-05-14T08:23:04.388Z,13.68
2023-05-14T08:25:31.093Z,15.25
2023-05-14T08:27:59.738Z,10.95
2023-05-14T08:30:26.823Z,14.23
2023-05-14T08:32:53.879Z,13.90
2023-05-14T08:35:20.458Z,13.18
2023-05-14T08:37:47.006Z,12.38
2023-05-14T08:40:13.650Z,14.75
2023-05-14T08:42:45.218Z,17.55
2023-05-14T08:45:25.865Z,15.90
2023-05-14T08:47:55.848Z,12.93
2023-05-14T08:50:23.769Z,15.38
2023-05-14T08:52:51.664Z,12.73
2023-05-14T08:55:19.065Z,11.88
2023-05-14T08:57:46.473Z,13.10
2023-05-14T09:00:16.188Z,12.95
2023-05-14T09:02:44.821Z,12.82
2023-05-14T09:05:12.561Z,15.23
2023-05-14T09:07:39.199Z,11.82
2023-05-14T09:10:06.427Z,14.43
2023-05-14T09:12:32.888Z,12.88
2023-05-14T09:14:59.313Z,10.30
2023-05-14T09:17:27.994Z,13.73
2023-05-14T09:19:54.834Z,12.60
2023-05-14T09:22:21.629Z,11.15
2023-05-14T09:25:06.504Z,10.27
2023-05-14T09:27:35.204Z,10.48
2023-05-14T09:30:10.060Z,12.70
2023-05-14T09:32:38.224Z,10.18
2023-05-14T09:35:18.997Z,11.27
2023-05-14T09:37:48.352Z,10.73
2023-05-14T09:40:15.798Z,11.15
2023-05-14T09:42:42.392Z,14.93
2023-05-14T09:45:10.215Z,14.73
2023-05-14T09:47:38.317Z,11.32
2023-05-14T09:50:06.359Z,13.27
2023-05-14T09:52:33.274Z,12.50
2023-05-14T09:55:00.603Z,13.52
2023-05-14T09:57:27.387Z,16.77
2023-05-14T09:59:54.207Z,13.02
2023-05-14T10:02:37.642Z,12.57
2023-05-14T10:05:08.268Z,12.75
2023-05-14T10:07:49.594Z,15.20
2023-05-14T10:10:19.603Z,9.38
2023-05-14T10:12:57.651Z,13.63
2023-05-14T10:15:59.112Z,9.95
2023-05-14T10:18:31.791Z,11.20
2023-05-14T10:21:05.780Z,9.05
2023-05-14T10:23:32.542Z,12.55
2023-05-14T10:25:59.765Z,12.30
2023-05-14T10:28:26.742Z,9.48
2023-05-14T10:30:54.403Z,12.32
2023-05-14T10:33:21.081Z,11.25
2023-05-14T10:36:07.476Z,12.45
2023-05-14T10:38:36.162Z,9.85
2023-05-14T10:41:07.095Z,12.27
2023-05-14T10:43:38.510Z,9.73
2023-05-14T10:46:05.854Z,10.05
2023-05-14T10:48:33.434Z,13.15
2023-05-14T10:51:01.491Z,9.82
2023-05-14T10:53:33.698Z,13.05
2023-05-14T10:56:11.778Z,12.57
2023-05-14T10:58:40.004Z,9.15
2023-05-14T11:01:08.259Z,9.80
2023-05-14T11:03:42.593Z,12.43
2023-05-14T11:06:11.127Z,8.35
2023-05-14T11:08:38.839Z,11.95
2023-05-14T11:11:06.610Z,8.93
2023-05-14T11:13:34.738Z,10.98
2023-05-14T11:16:11.986Z,9.13
2023-05-14T11:18:53.778Z,9.27
2023-05-14T11:21:20.701Z,9.98
2023-05-14T11:23:47.203Z,10.85
2023-05-14T11:26:13.773Z,9.00
2023-05-14T11:28:40.400Z,15.25
2023-05-14T11:31:07.276Z,9.57
2023-05-14T11:33:33.758Z,11.30
2023-05-14T11:36:00.222Z,9.70
2023-05-14T11:38:26.668Z,10.05
2023-05-14T11:40:58.561Z,12.20
2023-05-14T11:43:29.539Z,11.98
2023-05-14T11:45:57.332Z,7.82
2023-05-14T11:48:24.088Z,8.80
2023-05-14T11:50:52.882Z,11.07
2023-05-14T11:53:28.077Z,8.02
2023-05-14T11:55:55.239Z,11.75
2023-05-14T11:58:21.979Z,12.18
2023-05-14T12:00:52.715Z,12.40
2023-05-14T12:03:26.790Z,11.95
2023-05-14T12:06:00.990Z,9.77
2023-05-14T12:08:31.962Z,9.98
2023-05-14T12:11:00.468Z,9.85
2023-05-14T12:13:30.859Z,9.48
2023-05-14T12:16:00.407Z,10.80
2023-05-14T12:18:31.837Z,11.10
2023-05-14T12:23:32.497Z,9.43
2023-05-14T12:26:17.216Z,8.13
2023-05-14T12:28:47.697Z,11.98
2023-05-14T12:31:15.661Z,8.27
2023-05-14T12:33:42.138Z,9.95
2023-05-14T12:38:40.944Z,10.20
2023-05-14T12:41:07.428Z,10.35
2023-05-14T12:43:33.922Z,9.63
2023-05-14T12:46:00.488Z,10.88
2023-05-14T12:48:26.946Z,12.85
2023-05-14T12:50:53.429Z,10.27
2023-05-14T12:53:19.897Z,10.02
2023-05-14T12:55:46.644Z,10.15
2023-05-14T12:58:13.165Z,8.90
2023-05-14T13:00:39.741Z,6.80
2023-05-14T13:03:06.349Z,8.50
2023-05-14T13:05:33.297Z,10.07
2023-05-14T13:08:02.258Z,8.30
2023-05-14T13:10:28.747Z,10.80
2023-05-14T13:12:56.396Z,10.50
2023-05-14T13:15:23.341Z,12.43
2023-05-14T13:17:50.056Z,9.48
2023-05-14T13:20:18.257Z,9.95
2023-05-14T13:22:45.088Z,8.55
2023-05-14T13:25:11.601Z,9.77
2023-05-14T13:27:38.132Z,10.20
2023-05-14T13:30:04.961Z,7.90
2023-05-14T13:32:31.591Z,9.70
2023-05-14T13:34:58.117Z,9.07
2023-05-14T13:37:25.789Z,8.55
2023-05-14T13:39:52.348Z,10.48
2023-05-14T13:42:18.805Z,8.88
2023-05-14T13:44:45.321Z,8.90
2023-05-14T13:47:13.239Z,9.65
2023-05-14T13:49:40.727Z,12.65
2023-05-14T13:52:07.537Z,11.32
2023-05-14T13:54:35.684Z,10.38
2023-05-14T13:57:02.311Z,8.57
2023-05-14T13:59:28.919Z,11.30
2023-05-14T14:01:55.448Z,10.85
2023-05-14T14:04:22.208Z,9.30
2023-05-14T14:06:49.171Z,7.53
2023-05-14T14:09:15.891Z,8.18
2023-05-14T14:11:42.436Z,9.07
2023-05-14T14:14:10.542Z,11.60
2023-05-14T14:16:37.250Z,12.95
2023-05-14T14:19:03.980Z,10.65
2023-05-14T14:21:31.344Z,8.73
2023-05-14T14:23:57.956Z,10.90
2023-05-14T14:26:24.601Z,6.90
2023-05-14T14:28:51.373Z,9.50
2023-05-14T14:31:17.857Z,12.77
2023-05-14T14:33:44.344Z,7.72
2023-05-14T14:36:11.346Z,8.45
2023-05-14T14:38:39.400Z,7.97
2023-05-14T14:41:10.472Z,8.95
2023-05-14T14:43:38.243Z,7.25
2023-05-14T14:46:04.905Z,10.23
2023-05-14T14:48:37.841Z,7.90
2023-05-14T14:51:08.697Z,10.38
2023-05-14T14:53:36.775Z,6.93
2023-05-14T14:56:03.920Z,6.57
2023-05-14T14:58:31.324Z,9.93
2023-05-14T15:00:58.416Z,8.10
2023-05-14T15:03:25.633Z,6.63
2023-05-14T15:05:53.707Z,5.78
2023-05-14T15:08:27.584Z,9.38
2023-05-14T15:10:57.443Z,6.55
2023-05-14T15:13:24.765Z,11.52
2023-05-14T15:15:52.478Z,10.05
2023-05-14T15:18:19.158Z,7.05
2023-05-14T15:20:45.701Z,11.07
2023-05-14T15:23:12.218Z,13.32
2023-05-14T15:25:38.880Z,8.65
2023-05-14T15:28:08.585Z,9.25
2023-05-14T15:30:35.194Z,10.63
2023-05-14T15:33:01.907Z,7.07
2023-05-14T15:35:29.868Z,9.50
2023-05-14T15:37:59.174Z,7.65
2023-05-14T15:40:27.403Z,12.68
2023-05-14T15:42:54.052Z,9.00
2023-05-14T15:45:20.782Z,9.27
2023-05-14T15:47:50.856Z,8.02
2023-05-14T15:50:17.468Z,8.75
2023-05-14T15:52:44.010Z,9.02
2023-05-14T15:55:11.042Z,10.15
2023-05-14T15:57:37.712Z,9.60
2023-05-14T16:00:11.039Z,8.95
2023-05-14T16:02:38.746Z,7.10
2023-05-14T16:05:05.788Z,6.35
2023-05-14T16:07:33.055Z,9.75
2023-05-14T16:10:02.418Z,10.75
2023-05-14T16:12:30.603Z,12.13
2023-05-14T16:15:00.329Z,10.63
2023-05-14T16:17:28.136Z,10.43
2023-05-14T16:19:56.278Z,8.43
2023-05-14T16:22:23.225Z,8.18
2023-05-14T16:24:49.695Z,8.50
2023-05-14T16:27:18.396Z,9.10
2023-05-14T16:29:45.489Z,10.90
2023-05-14T16:32:14.893Z,9.68
2023-05-14T16:34:41.500Z,10.10
2023-05-14T16:37:08.190Z,10.27
2023-05-14T16:39:34.662Z,9.73
2023-05-14T16:42:03.501Z,8.88
2023-05-14T16:44:29.926Z,8.90
2023-05-14T16:46:56.408Z,9.85
2023-05-14T16:49:23.038Z,10.60
2023-05-14T16:51:49.819Z,8.02
2023-05-14T16:54:16.382Z,11.32
2023-05-14T16:56:48.236Z,9.73
2023-05-14T17:01:42.885Z,8.73
2023-05-14T17:04:10.204Z,10.27
2023-05-14T17:06:37.088Z,9.32
2023-05-14T17:09:04.022Z,7.05
2023-05-14T17:11:33.365Z,9.68
2023-05-14T17:13:59.918Z,9.15
2023-05-14T17:16:27.184Z,10.00
2023-05-14T17:18:53.859Z,10.20
2023-05-14T17:21:20.437Z,13.38
2023-05-14T17:23:46.908Z,12.95
2023-05-14T17:26:13.377Z,13.38
2023-05-14T17:28:39.844Z,13.30
2023-05-14T17:31:06.510Z,11.48
2023-05-14T17:33:34.689Z,17.77
2023-05-14T17:36:01.252Z,14.70
2023-05-14T17:38:27.706Z,11.88
2023-05-14T17:40:57.085Z,11.50
2023-05-14T17:43:25.696Z,14.50
2023-05-14T17:45:54.346Z,14.05
2023-05-14T17:48:22.711Z,12.55
2023-05-14T17:50:49.318Z,12.85
2023-05-14T17:53:15.816Z,12.68
2023-05-14T17:55:43.646Z,11.88
2023-05-14T17:58:13.412Z,14.80
2023-05-14T18:00:40.353Z,12.95
2023-05-14T18:03:07.969Z,10.25
2023-05-14T18:05:34.981Z,14.32
2023-05-14T18:08:01.497Z,9.27
2023-05-14T18:10:29.514Z,12.02
2023-05-14T18:12:56.545Z,15.38
2023-05-14T18:15:25.934Z,12.95
2023-05-14T18:17:52.818Z,9.73
2023-05-14T18:20:19.696Z,12.27
2023-05-14T18:22:49.328Z,13.70
2023-05-14T18:25:21.478Z,13.38
2023-05-14T18:30:15.931Z,12.30
2023-05-14T18:32:45.058Z,12.00
2023-05-14T18:35:13.096Z,15.20
2023-05-14T18:37:39.973Z,11.80
2023-05-14T18:40:07.403Z,10.60
2023-05-14T18:42:34.356Z,11.82
2023-05-14T18:45:01.700Z,9.55
2023-05-14T18:47:28.338Z,11.57
2023-05-14T18:49:57.719Z,12.77
2023-05-14T18:52:26.283Z,12.98
2023-05-14T18:54:53.864Z,10.82
2023-05-14T18:57:21.258Z,13.88
2023-05-14T18:59:47.823Z,12.13
2023-05-14T19:02:14.519Z,8.23
2023-05-14T19:04:51.065Z,10.43
2023-05-14T19:07:19.026Z,10.43
2023-05-14T19:09:45.613Z,13.35
2023-05-14T19:12:12.371Z,9.90
2023-05-14T19:14:38.816Z,12.10
2023-05-14T19:17:05.783Z,9.55
2023-05-14T19:19:32.733Z,12.35
2023-05-14T19:21:59.277Z,11.50
2023-05-14T19:24:25.877Z,13.48
2023-05-14T19:26:52.672Z,13.38
2023-05-14T19:29:19.277Z,13.40
2023-05-14T19:31:46.217Z,13.30
2023-05-14T19:34:12.996Z,12.98
2023-05-14T19:36:39.531Z,13.95
2023-05-14T19:39:06.138Z,14.15
2023-05-14T19:41:32.620Z,12.73
2023-05-14T19:44:02.189Z,12.85
2023-05-14T19:46:29.118Z,12.65
2023-05-14T19:48:55.852Z,12.95
2023-05-14T19:51:23.734Z,9.25
2023-05-14T19:53:50.259Z,9.48
2023-05-14T19:56:16.840Z,13.63
2023-05-14T19:58:44.631Z,11.80
2023-05-14T20:01:12.012Z,14.60
2023-05-14T20:03:38.796Z,14.23
2023-05-14T20:06:06.605Z,13.70
2023-05-14T20:08:33.333Z,11.30
2023-05-14T20:10:59.853Z,12.07
2023-05-14T20:13:26.281Z,12.35
2023-05-14T20:15:52.892Z,9.43
2023-05-14T20:18:19.340Z,13.05
2023-05-14T20:20:45.897Z,13.10
2023-05-14T20:23:12.448Z,13.05
2023-05-14T20:25:39.278Z,12.90
2023-05-14T20:28:05.766Z,15.43
2023-05-14T20:30:32.564Z,14.00
2023-05-14T20:32:59.557Z,11.23
2023-05-14T20:35:26.524Z,10.15
2023-05-14T20:37:56.309Z,14.13
2023-05-14T20:40:22.885Z,16.02
2023-05-14T20:42:50.444Z,12.73
2023-05-14T20:45:17.031Z,12.07
2023-05-14T20:47:43.512Z,12.40
2023-05-14T20:50:10.233Z,12.48
2023-05-14T20:52:36.757Z,12.88
2023-05-14T20:55:03.406Z,14.65
2023-05-14T20:57:30.283Z,11.07
2023-05-14T20:59:56.882Z,11.25
2023-05-14T21:02:23.549Z,12.93
2023-05-14T21:04:50.829Z,11.70
2023-05-14T21:07:17.484Z,14.13
2023-05-14T21:09:46.483Z,9.40
2023-05-14T21:12:12.958Z,12.02
2023-05-14T21:14:39.423Z,10.32
2023-05-14T21:17:06.110Z,13.30
2023-05-14T21:19:32.848Z,13.00
2023-05-14T21:21:59.438Z,12.68
2023-05-14T21:24:25.893Z,11.60
2023-05-14T21:26:53.699Z,12.27
2023-05-14T21:29:20.286Z,11.25
2023-05-14T21:31:48.483Z,12.30
2023-05-14T21:34:14.974Z,10.93
2023-05-14T21:36:41.659Z,12.10
2023-05-14T21:39:08.105Z,13.32
2023-05-14T21:41:34.560Z,12.13
2023-05-14T21:44:01.081Z,11.13
2023-05-14T21:46:28.967Z,13.65
2023-05-14T21:48:56.516Z,14.10
2023-05-14T21:51:23.129Z,12.05
2023-05-14T21:53:49.911Z,13.52
2023-05-14T21:56:16.554Z,11.30
2023-05-14T21:58:44.212Z,20.42
2023-05-14T22:01:11.547Z,12.88
2023-05-14T22:03:38.517Z,12.73
2023-05-14T22:06:06.808Z,10.93
2023-05-14T22:08:33.435Z,12.82
2023-05-14T22:10:59.918Z,13.38
2023-05-14T22:13:26.454Z,14.10
2023-05-14T22:16:01.499Z,14.20
2023-05-14T22:18:38.650Z,12.02
2023-05-14T22:21:05.301Z,15.10
2023-05-14T22:23:34.429Z,13.80
2023-05-14T22:26:01.075Z,12.65
2023-05-14T22:28:27.577Z,14.10
2023-05-14T22:30:54.396Z,13.27
2023-05-14T22:33:20.968Z,16.75
2023-05-14T22:35:48.989Z,14.20
2023-05-14T22:38:15.677Z,15.13
2023-05-14T22:40:42.433Z,17.52
2023-05-14T22:43:08.896Z,13.82
2023-05-14T22:45:35.904Z,15.80
2023-05-14T22:48:02.487Z,15.65
2023-05-14T22:50:28.969Z,14.02
2023-05-14T22:52:55.409Z,15.70
2023-05-14T22:55:21.924Z,18.08
2023-05-14T22:57:48.437Z,15.68
2023-05-14T23:00:15.612Z,16.92
2023-05-14T23:02:42.404Z,14.25
2023-05-14T23:05:09.426Z,12.35
2023-05-14T23:07:37.436Z,14.90
2023-05-14T23:10:04.240Z,18.60
2023-05-14T23:12:30.706Z,14.02
2023-05-14T23:14:59.167Z,17.30
2023-05-14T23:17:28.827Z,17.50
2023-05-14T23:19:55.549Z,13.63
2023-05-14T23:22:22.238Z,13.32
2023-05-14T23:24:48.920Z,16.27
2023-05-14T23:27:15.549Z,15.05
2023-05-14T23:29:42.090Z,19.67
2023-05-14T23:32:09.118Z,16.40
2023-05-14T23:34:35.921Z,20.15
2023-05-14T23:37:02.515Z,15.13
2023-05-14T23:39:33.549Z,16.27
2023-05-14T23:42:00.166Z,15.10
2023-05-14T23:44:26.787Z,14.43
2023-05-14T23:46:53.614Z,19.63
2023-05-14T23:49:20.278Z,18.05
2023-05-14T23:51:46.886Z,14.95
2023-05-14T23:54:13.420Z,18.58
2023-05-14T23:56:40.563Z,16.02
2023-05-14T23:59:07.268Z,13.25
